createdAt,value
2018-03-27T00:01:33.469Z,99.90
2018-03-27T00:04:00.915Z,99.90
2018-03-27T00:06:28.401Z,99.90
2018-03-27T00:08:55.869Z,99.90
2018-03-27T00:11:23.355Z,99.90
2018-03-27T00:13:50.812Z,99.90
2018-03-27T00:16:18.289Z,99.90
2018-03-27T00:18:45.773Z,99.90
2018-03-27T00:21:13.249Z,99.90
2018-03-27T00:23:40.704Z,99.90
2018-03-27T00:26:08.550Z,99.90
2018-03-27T00:28:48.058Z,99.90
2018-03-27T00:31:27.302Z,99.90
2018-03-27T00:34:06.659Z,99.90
2018-03-27T00:36:46.121Z,99.90
2018-03-27T00:39:25.486Z,99.90
2018-03-27T00:45:11.344Z,99.90
2018-03-27T00:47:39.584Z,99.90
2018-03-27T00:50:07.038Z,99.90
2018-03-27T00:52:34.520Z,99.90
2018-03-27T00:55:01.973Z,99.90
2018-03-27T00:57:29.453Z,99.90
2018-03-27T00:59:56.913Z,99.90
2018-03-27T01:02:24.389Z,99.90
2018-03-27T01:04:51.851Z,99.90
2018-03-27T01:07:19.317Z,99.90
2018-03-27T01:09:46.765Z,99.90
2018-03-27T01:12:15.000Z,99.90
2018-03-27T01:14:42.469Z,99.90
2018-03-27T01:17:09.946Z,99.90
2018-03-27T01:19:37.404Z,99.90
2018-03-27T01:22:04.865Z,99.90
2018-03-27T01:24:32.317Z,99.90
2018-03-27T01:27:00.574Z,99.90
2018-03-27T01:29:28.037Z,99.90
2018-03-27T01:31:56.282Z,99.90
2018-03-27T01:34:23.777Z,99.90
2018-03-27T01:36:51.225Z,99.90
2018-03-27T01:39:18.706Z,99.90
2018-03-27T01:41:46.146Z,99.90
2018-03-27T01:44:13.610Z,99.90
2018-03-27T01:46:42.070Z,99.90
2018-03-27T01:49:09.540Z,99.90
2018-03-27T01:51:36.993Z,99.90
2018-03-27T01:54:04.454Z,99.90
2018-03-27T01:56:31.937Z,99.90
2018-03-27T01:58:59.396Z,99.90
2018-03-27T02:01:26.864Z,99.90
2018-03-27T02:03:54.313Z,99.90
2018-03-27T02:06:21.770Z,99.90
2018-03-27T02:08:49.233Z,99.90
2018-03-27T02:11:23.101Z,99.90
2018-03-27T02:13:56.226Z,99.90
2018-03-27T02:16:29.365Z,99.90
2018-03-27T02:19:03.338Z,99.90
2018-03-27T02:21:30.329Z,99.90
2018-03-27T02:23:58.574Z,99.90
2018-03-27T02:26:26.027Z,99.90
2018-03-27T02:28:53.489Z,99.90
2018-03-27T02:31:20.942Z,99.90
2018-03-27T02:33:49.178Z,99.90
2018-03-27T02:36:16.630Z,99.90
2018-03-27T02:38:44.099Z,99.90
2018-03-27T02:41:12.327Z,99.90
2018-03-27T02:43:39.791Z,99.90
2018-03-27T02:46:07.246Z,99.90
2018-03-27T02:48:34.721Z,99.90
2018-03-27T02:51:02.585Z,99.90
2018-03-27T02:53:30.046Z,99.90
2018-03-27T02:55:57.524Z,99.90
2018-03-27T02:58:24.983Z,99.90
2018-03-27T03:00:53.202Z,99.90
2018-03-27T03:03:20.682Z,99.90
2018-03-27T03:05:48.130Z,99.90
2018-03-27T03:08:15.585Z,99.90
2018-03-27T03:10:43.805Z,99.90
2018-03-27T03:13:11.269Z,99.90
2018-03-27T03:15:38.733Z,99.90
2018-03-27T03:18:06.182Z,99.90
2018-03-27T03:20:34.429Z,99.90
2018-03-27T03:23:01.869Z,99.90
2018-03-27T03:25:29.325Z,99.90
2018-03-27T03:27:56.790Z,99.90
2018-03-27T03:30:24.263Z,99.90
2018-03-27T03:32:51.710Z,99.90
2018-03-27T03:35:19.944Z,99.90
2018-03-27T03:37:47.390Z,99.90
2018-03-27T03:40:14.856Z,99.90
2018-03-27T03:42:43.074Z,99.90
2018-03-27T03:45:10.540Z,99.90
2018-03-27T03:47:37.986Z,99.90
2018-03-27T03:50:06.209Z,99.90
2018-03-27T03:52:33.676Z,99.90
2018-03-27T03:55:01.161Z,99.90
2018-03-27T03:57:29.377Z,99.90
2018-03-27T03:59:56.842Z,99.90
2018-03-27T04:02:24.321Z,99.90
2018-03-27T04:04:51.788Z,99.90
2018-03-27T04:07:19.248Z,99.90
2018-03-27T04:09:46.713Z,99.90
2018-03-27T04:12:14.166Z,99.90
2018-03-27T04:14:41.625Z,99.90
2018-03-27T04:17:09.073Z,99.90
2018-03-27T04:19:37.320Z,99.90
2018-03-27T04:22:04.774Z,99.90
2018-03-27T04:24:32.228Z,99.90
2018-03-27T04:26:59.696Z,99.90
2018-03-27T04:29:27.149Z,99.90
2018-03-27T04:31:54.618Z,99.90
2018-03-27T04:34:22.073Z,99.90
2018-03-27T04:36:50.313Z,99.90
2018-03-27T04:39:17.765Z,99.90
2018-03-27T04:41:45.225Z,99.90
2018-03-27T04:44:12.669Z,99.90
2018-03-27T04:46:40.897Z,99.90
2018-03-27T04:49:08.353Z,99.90
2018-03-27T04:51:35.830Z,99.90
2018-03-27T04:54:03.305Z,99.90
2018-03-27T04:56:30.756Z,99.90
2018-03-27T04:58:59.961Z,99.90
2018-03-27T05:01:28.172Z,99.90
2018-03-27T05:03:55.626Z,99.90
2018-03-27T05:06:23.870Z,99.90
2018-03-27T05:08:51.337Z,99.90
2018-03-27T05:11:18.813Z,99.90
2018-03-27T05:13:46.261Z,99.90
2018-03-27T05:16:14.641Z,99.90
2018-03-27T05:18:42.089Z,99.90
2018-03-27T05:21:10.368Z,99.90
2018-03-27T05:23:37.835Z,99.90
2018-03-27T05:26:05.302Z,99.90
2018-03-27T05:28:33.518Z,99.90
2018-03-27T05:31:00.994Z,99.90
2018-03-27T05:33:28.523Z,99.90
2018-03-27T05:35:55.928Z,99.90
2018-03-27T05:38:23.386Z,99.90
2018-03-27T05:40:51.628Z,99.90
2018-03-27T05:43:19.085Z,99.90
2018-03-27T05:45:46.561Z,99.90
2018-03-27T05:48:14.017Z,99.90
2018-03-27T05:50:41.502Z,99.90
2018-03-27T05:53:09.036Z,99.90
2018-03-27T05:55:37.265Z,99.90
2018-03-27T05:58:04.726Z,99.90
2018-03-27T06:00:33.693Z,99.90
2018-03-27T06:03:01.938Z,99.90
2018-03-27T06:05:29.390Z,99.90
2018-03-27T06:07:56.870Z,99.90
2018-03-27T06:10:24.331Z,99.90
2018-03-27T06:12:51.801Z,99.90
2018-03-27T06:15:19.266Z,99.90
2018-03-27T06:17:46.740Z,99.90
2018-03-27T06:20:14.258Z,99.90
2018-03-27T06:22:41.710Z,99.90
2018-03-27T06:25:09.245Z,99.90
2018-03-27T06:27:36.775Z,99.90
2018-03-27T06:30:04.195Z,99.90
2018-03-27T06:32:31.683Z,99.90
2018-03-27T06:34:59.127Z,99.90
2018-03-27T06:37:26.646Z,99.90
2018-03-27T06:39:54.088Z,99.90
2018-03-27T06:42:21.561Z,99.90
2018-03-27T06:44:49.029Z,99.90
2018-03-27T06:47:16.501Z,99.90
2018-03-27T06:49:43.970Z,99.90
2018-03-27T06:52:11.440Z,99.90
2018-03-27T06:54:38.917Z,99.90
2018-03-27T06:57:06.378Z,99.90
2018-03-27T06:59:33.856Z,99.90
2018-03-27T07:02:01.308Z,99.90
2018-03-27T07:04:28.831Z,99.90
2018-03-27T07:06:56.324Z,99.90
2018-03-27T07:09:23.814Z,99.90
2018-03-27T07:11:51.242Z,99.90
2018-03-27T07:14:18.721Z,99.90
2018-03-27T07:16:46.192Z,99.90
2018-03-27T07:19:13.662Z,99.90
2018-03-27T07:21:41.117Z,99.90
2018-03-27T07:24:08.589Z,99.90
2018-03-27T07:26:36.056Z,99.90
2018-03-27T07:29:03.551Z,99.90
2018-03-27T07:31:31.012Z,99.90
2018-03-27T07:33:58.485Z,99.90
2018-03-27T07:36:25.950Z,99.90
2018-03-27T07:38:53.502Z,99.90
2018-03-27T07:41:20.973Z,99.90
2018-03-27T07:43:48.438Z,99.90
2018-03-27T07:46:15.942Z,99.90
2018-03-27T07:48:43.396Z,99.90
2018-03-27T07:51:11.809Z,99.90
2018-03-27T07:53:39.266Z,99.90
2018-03-27T07:56:06.744Z,99.90
2018-03-27T07:58:34.236Z,99.90
2018-03-27T08:01:01.770Z,99.90
2018-03-27T08:03:29.230Z,99.90
2018-03-27T08:05:56.677Z,99.90
2018-03-27T08:08:24.142Z,99.90
2018-03-27T08:13:54.440Z,99.90
2018-03-27T08:16:22.676Z,99.10
2018-03-27T08:18:50.155Z,99.00
2018-03-27T08:21:17.614Z,98.20
2018-03-27T08:23:45.083Z,94.80
2018-03-27T08:26:12.554Z,92.90
2018-03-27T08:28:40.022Z,92.50
2018-03-27T08:31:07.492Z,93.00
2018-03-27T08:33:34.962Z,92.10
2018-03-27T08:36:02.424Z,91.40
2018-03-27T08:38:29.893Z,85.30
2018-03-27T08:40:57.405Z,87.30
2018-03-27T08:43:24.940Z,86.20
2018-03-27T08:45:52.446Z,84.30
2018-03-27T08:48:19.930Z,79.60
2018-03-27T08:50:47.393Z,80.60
2018-03-27T08:53:14.850Z,82.50
2018-03-27T08:55:44.822Z,79.30
2018-03-27T08:58:13.047Z,74.50
2018-03-27T09:00:40.598Z,74.50
2018-03-27T09:03:08.004Z,75.80
2018-03-27T09:05:35.485Z,73.10
2018-03-27T09:08:02.941Z,69.90
2018-03-27T09:10:30.408Z,68.90
2018-03-27T09:12:57.864Z,66.70
2018-03-27T09:15:25.337Z,67.20
2018-03-27T09:17:52.793Z,64.80
2018-03-27T09:20:20.271Z,68.00
2018-03-27T09:22:47.730Z,65.00
2018-03-27T09:25:15.312Z,66.20
2018-03-27T09:27:42.764Z,63.40
2018-03-27T09:30:10.246Z,60.80
2018-03-27T09:32:37.701Z,60.30
2018-03-27T09:35:05.944Z,58.20
2018-03-27T09:37:33.425Z,58.10
2018-03-27T09:40:00.901Z,58.00
2018-03-27T09:42:28.357Z,57.40
2018-03-27T09:44:55.825Z,57.10
2018-03-27T09:47:23.302Z,57.50
2018-03-27T09:49:50.785Z,54.70
2018-03-27T09:52:18.233Z,52.20
2018-03-27T09:54:45.739Z,51.80
2018-03-27T09:57:13.205Z,51.40
2018-03-27T09:59:40.657Z,49.20
2018-03-27T10:02:08.412Z,51.90
2018-03-27T10:04:35.879Z,52.30
2018-03-27T10:07:03.381Z,51.80
2018-03-27T10:09:30.853Z,53.10
2018-03-27T10:11:58.320Z,50.80
2018-03-27T10:14:25.808Z,50.90
2018-03-27T10:16:53.265Z,48.30
2018-03-27T10:19:20.724Z,47.90
2018-03-27T10:21:48.192Z,47.00
2018-03-27T10:24:15.657Z,47.00
2018-03-27T10:26:43.130Z,43.00
2018-03-27T10:29:10.589Z,43.20
2018-03-27T10:31:38.061Z,41.00
2018-03-27T10:34:05.558Z,42.00
2018-03-27T10:36:33.027Z,41.30
2018-03-27T10:39:00.484Z,41.30
2018-03-27T10:41:27.963Z,42.70
2018-03-27T10:43:55.424Z,43.60
2018-03-27T10:46:22.900Z,43.70
2018-03-27T10:48:50.357Z,43.50
2018-03-27T10:51:17.837Z,41.90
2018-03-27T10:53:45.301Z,43.40
2018-03-27T10:56:12.769Z,44.90
2018-03-27T10:58:40.242Z,44.30
2018-03-27T11:01:07.700Z,46.00
2018-03-27T11:03:35.165Z,46.00
2018-03-27T11:06:02.629Z,46.20
2018-03-27T11:08:30.864Z,46.40
2018-03-27T11:10:58.330Z,46.40
2018-03-27T11:13:25.796Z,44.60
2018-03-27T11:15:53.252Z,45.80
2018-03-27T11:18:20.727Z,45.60
2018-03-27T11:20:48.193Z,44.60
2018-03-27T11:23:15.707Z,45.30
2018-03-27T11:25:43.128Z,43.30
2018-03-27T11:28:10.599Z,43.10
2018-03-27T11:30:38.057Z,42.60
2018-03-27T11:33:05.532Z,42.50
2018-03-27T11:35:33.005Z,41.90
2018-03-27T11:38:00.470Z,42.40
2018-03-27T11:40:27.945Z,42.10
2018-03-27T11:42:55.418Z,41.60
2018-03-27T11:45:22.882Z,40.40
2018-03-27T11:47:50.365Z,37.90
2018-03-27T11:50:17.826Z,38.40
2018-03-27T11:52:46.056Z,37.80
2018-03-27T11:55:13.524Z,37.80
2018-03-27T11:57:41.769Z,38.20
2018-03-27T12:00:10.060Z,37.80
2018-03-27T12:02:38.280Z,37.60
2018-03-27T12:05:05.740Z,37.60
2018-03-27T12:07:33.208Z,37.20
2018-03-27T12:10:00.657Z,36.80
2018-03-27T12:12:28.896Z,35.20
2018-03-27T12:14:56.369Z,35.10
2018-03-27T12:17:23.829Z,36.90
2018-03-27T12:19:51.285Z,34.40
2018-03-27T12:22:18.753Z,34.00
2018-03-27T12:24:46.216Z,32.80
2018-03-27T12:27:13.665Z,33.60
2018-03-27T12:29:41.912Z,33.30
2018-03-27T12:32:09.372Z,33.20
2018-03-27T12:34:36.837Z,33.00
2018-03-27T12:37:04.292Z,31.60
2018-03-27T12:39:31.766Z,33.00
2018-03-27T12:41:59.243Z,32.90
2018-03-27T12:44:26.716Z,32.90
2018-03-27T12:46:54.179Z,31.50
2018-03-27T12:49:21.665Z,31.20
2018-03-27T12:51:49.159Z,31.80
2018-03-27T12:54:16.623Z,33.10
2018-03-27T12:56:44.183Z,32.10
2018-03-27T12:59:11.649Z,31.80
2018-03-27T13:01:39.119Z,31.70
2018-03-27T13:04:06.597Z,31.70
2018-03-27T13:06:34.061Z,31.50
2018-03-27T13:09:01.534Z,31.40
2018-03-27T13:11:28.989Z,31.90
2018-03-27T13:13:57.225Z,32.10
2018-03-27T13:16:24.700Z,32.00
2018-03-27T13:18:52.181Z,30.90
2018-03-27T13:21:20.628Z,33.20
2018-03-27T13:23:48.105Z,32.70
2018-03-27T13:26:15.578Z,32.00
2018-03-27T13:28:43.089Z,33.30
2018-03-27T13:31:11.314Z,33.20
2018-03-27T13:33:38.787Z,33.20
2018-03-27T13:36:06.249Z,31.50
2018-03-27T13:38:33.724Z,31.60
2018-03-27T13:41:01.189Z,31.70
2018-03-27T13:43:28.677Z,32.80
2018-03-27T13:45:56.136Z,32.10
2018-03-27T13:48:23.604Z,31.30
2018-03-27T13:50:51.079Z,31.00
2018-03-27T13:53:18.543Z,32.00
2018-03-27T13:55:46.013Z,31.80
2018-03-27T13:58:13.493Z,32.70
2018-03-27T14:00:40.975Z,33.00
2018-03-27T14:03:08.443Z,32.80
2018-03-27T14:05:36.676Z,33.40
2018-03-27T14:08:04.164Z,33.40
2018-03-27T14:10:31.697Z,34.70
2018-03-27T14:12:59.153Z,34.10
2018-03-27T14:15:26.624Z,34.90
2018-03-27T14:17:54.088Z,34.40
2018-03-27T14:20:21.568Z,35.20
2018-03-27T14:22:49.035Z,35.30
2018-03-27T14:25:16.518Z,35.60
2018-03-27T14:27:43.984Z,35.60
2018-03-27T14:30:11.462Z,35.70
2018-03-27T14:32:38.923Z,36.50
2018-03-27T14:35:06.389Z,36.70
2018-03-27T14:37:33.853Z,39.30
2018-03-27T14:40:01.326Z,40.30
2018-03-27T14:42:28.786Z,38.50
2018-03-27T14:44:56.269Z,40.50
2018-03-27T14:47:23.745Z,40.70
2018-03-27T14:49:51.209Z,40.80
2018-03-27T14:52:18.682Z,42.40
2018-03-27T14:54:46.149Z,45.30
2018-03-27T14:57:13.617Z,45.50
2018-03-27T14:59:41.072Z,47.50
2018-03-27T15:02:08.545Z,48.00
2018-03-27T15:04:36.007Z,47.90
2018-03-27T15:07:04.233Z,48.10
2018-03-27T15:09:31.701Z,48.10
2018-03-27T15:11:59.203Z,48.00
2018-03-27T15:14:26.654Z,48.40
2018-03-27T15:16:54.124Z,48.70
2018-03-27T15:19:21.598Z,49.30
2018-03-27T15:21:49.073Z,49.70
2018-03-27T15:24:16.541Z,50.30
2018-03-27T15:26:44.003Z,49.00
2018-03-27T15:29:11.505Z,49.00
2018-03-27T15:31:38.977Z,49.80
2018-03-27T15:34:06.448Z,49.90
2018-03-27T15:36:33.926Z,50.10
2018-03-27T15:39:01.388Z,49.40
2018-03-27T15:41:28.854Z,49.90
2018-03-27T15:43:56.309Z,49.90
2018-03-27T15:46:23.793Z,50.40
2018-03-27T15:48:51.287Z,50.10
2018-03-27T15:51:18.750Z,50.80
2018-03-27T15:53:46.209Z,51.30
2018-03-27T15:56:13.691Z,50.70
2018-03-27T15:58:41.920Z,51.60
2018-03-27T16:01:09.397Z,51.20
2018-03-27T16:03:36.865Z,51.20
2018-03-27T16:06:04.358Z,51.80
2018-03-27T16:08:31.829Z,52.90
2018-03-27T16:10:59.327Z,53.60
2018-03-27T16:13:26.797Z,56.50
2018-03-27T16:15:54.262Z,60.70
2018-03-27T16:18:21.734Z,60.60
2018-03-27T16:20:49.228Z,65.00
2018-03-27T16:23:17.480Z,71.70
2018-03-27T16:25:45.022Z,71.40
2018-03-27T16:28:12.477Z,76.30
2018-03-27T16:30:39.946Z,74.80
2018-03-27T16:33:07.413Z,79.90
2018-03-27T16:35:35.970Z,91.90
2018-03-27T16:38:03.447Z,92.00
2018-03-27T16:40:30.989Z,92.40
2018-03-27T16:42:58.461Z,90.00
2018-03-27T16:45:25.929Z,90.40
2018-03-27T16:47:53.396Z,90.10
2018-03-27T16:50:20.865Z,92.20
2018-03-27T16:52:48.329Z,93.80
2018-03-27T16:55:15.796Z,93.30
2018-03-27T16:57:43.259Z,92.80
2018-03-27T17:00:10.717Z,94.60
2018-03-27T17:02:38.937Z,99.90
2018-03-27T17:05:07.168Z,99.90
2018-03-27T17:07:34.625Z,99.90
2018-03-27T17:10:02.105Z,99.90
2018-03-27T17:12:29.630Z,99.90
2018-03-27T17:15:07.001Z,99.90
2018-03-27T17:17:35.229Z,99.90
2018-03-27T17:20:02.706Z,99.90
2018-03-27T17:22:30.168Z,99.90
2018-03-27T17:24:57.677Z,99.90
2018-03-27T17:27:25.124Z,99.90
2018-03-27T17:29:52.595Z,99.90
2018-03-27T17:32:20.052Z,99.90
2018-03-27T17:34:47.508Z,99.90
2018-03-27T17:37:14.968Z,99.90
2018-03-27T17:39:43.203Z,99.90
2018-03-27T17:42:10.677Z,99.90
2018-03-27T17:44:38.147Z,99.90
2018-03-27T17:47:05.613Z,99.90
2018-03-27T17:49:33.101Z,99.90
2018-03-27T17:52:00.562Z,99.90
2018-03-27T17:54:28.046Z,99.90
2018-03-27T17:56:55.506Z,99.90
2018-03-27T17:59:22.980Z,99.90
2018-03-27T18:01:50.474Z,99.90
2018-03-27T18:04:17.933Z,99.90
2018-03-27T18:06:45.411Z,99.90
2018-03-27T18:09:12.902Z,99.90
2018-03-27T18:11:41.144Z,99.90
2018-03-27T18:14:08.665Z,99.90
2018-03-27T18:16:36.889Z,99.90
2018-03-27T18:43:17.832Z,99.90
2018-03-27T18:45:45.373Z,99.90
2018-03-27T18:48:13.661Z,99.90
2018-03-27T19:02:42.347Z,99.90
2018-03-27T19:05:09.826Z,99.90
2018-03-27T19:07:37.303Z,99.90
2018-03-27T19:18:47.400Z,99.90
2018-03-27T19:21:14.866Z,99.90
2018-03-27T19:23:42.313Z,99.90
2018-03-27T19:26:09.806Z,99.90
2018-03-27T19:28:37.279Z,99.90
2018-03-27T19:31:05.505Z,99.90
2018-03-27T19:33:33.817Z,99.90
2018-03-27T19:36:01.330Z,99.90
2018-03-27T19:38:28.797Z,99.90
2018-03-27T19:40:56.353Z,99.90
2018-03-27T19:43:23.829Z,99.90
2018-03-27T19:45:51.278Z,99.90
2018-03-27T19:48:18.735Z,99.90
2018-03-27T19:50:46.190Z,99.90
2018-03-27T19:53:13.769Z,99.90
2018-03-27T19:55:41.285Z,99.90
2018-03-27T19:58:08.764Z,99.90
2018-03-27T20:00:36.222Z,99.90
2018-03-27T20:03:03.677Z,99.90
2018-03-27T20:05:31.156Z,99.90
2018-03-27T20:08:05.437Z,99.90
2018-03-27T20:10:32.890Z,99.90
2018-03-27T20:13:00.354Z,99.90
2018-03-27T20:15:27.929Z,99.90
2018-03-27T20:17:55.386Z,99.90
2018-03-27T20:20:22.855Z,99.90
2018-03-27T20:22:50.307Z,99.90
2018-03-27T20:25:18.378Z,99.90
2018-03-27T20:27:45.828Z,99.90
2018-03-27T20:30:13.381Z,99.90
2018-03-27T20:32:40.862Z,99.90
2018-03-27T20:35:08.405Z,99.90
2018-03-27T20:37:35.862Z,99.90
2018-03-27T20:40:03.340Z,99.90
2018-03-27T20:42:31.554Z,99.90
2018-03-27T20:44:59.096Z,99.90
2018-03-27T20:47:26.566Z,99.90
2018-03-27T20:49:54.026Z,99.90
2018-03-27T20:52:21.652Z,99.90
2018-03-27T20:54:49.179Z,99.90
2018-03-27T20:57:16.654Z,99.90
2018-03-27T20:59:44.427Z,99.90
2018-03-27T21:02:12.009Z,99.90
2018-03-27T21:04:39.518Z,99.90
2018-03-27T21:07:06.978Z,99.90
2018-03-27T21:09:34.485Z,99.90
2018-03-27T21:12:01.957Z,99.90
2018-03-27T21:14:29.480Z,99.90
2018-03-27T21:16:57.707Z,99.90
2018-03-27T21:19:25.182Z,99.90
2018-03-27T21:21:52.682Z,99.90
2018-03-27T21:24:21.250Z,99.90
2018-03-27T21:26:49.492Z,99.90
2018-03-27T21:29:16.994Z,99.90
2018-03-27T21:31:44.450Z,99.90
2018-03-27T21:34:11.958Z,99.90
2018-03-27T21:36:39.684Z,99.90
2018-03-27T21:39:07.292Z,99.90
2018-03-27T21:41:35.602Z,99.90
2018-03-27T21:44:03.971Z,99.90
2018-03-27T21:46:32.509Z,99.90
2018-03-27T21:49:00.351Z,99.90
2018-03-27T21:51:28.179Z,99.90
2018-03-27T21:53:55.729Z,99.90
2018-03-27T21:56:23.225Z,99.90
2018-03-27T21:58:50.689Z,99.90
2018-03-27T22:01:18.133Z,99.90
2018-03-27T22:03:45.613Z,99.90
2018-03-27T22:06:13.161Z,99.90
2018-03-27T22:08:40.618Z,99.90
2018-03-27T22:11:08.085Z,99.90
2018-03-27T22:13:35.550Z,99.90
2018-03-27T22:16:03.007Z,99.90
2018-03-27T22:18:30.445Z,99.90
2018-03-27T22:20:58.212Z,99.90
2018-03-27T22:23:25.683Z,99.90
2018-03-27T22:25:53.146Z,99.90
2018-03-27T22:28:20.732Z,99.90
2018-03-27T22:30:48.953Z,99.90
2018-03-27T22:33:16.405Z,99.90
2018-03-27T22:35:43.959Z,99.90
2018-03-27T22:38:11.721Z,99.90
2018-03-27T22:40:39.196Z,99.90
2018-03-27T22:43:06.840Z,99.90
2018-03-27T22:45:34.337Z,99.90
2018-03-27T22:48:01.777Z,99.90
2018-03-27T22:50:29.331Z,99.90
2018-03-27T22:52:57.029Z,99.90
2018-03-27T22:55:24.905Z,99.90
2018-03-27T22:57:52.535Z,99.90
2018-03-27T23:00:20.930Z,99.90
2018-03-27T23:02:48.394Z,99.90
2018-03-27T23:05:15.866Z,99.90
2018-03-27T23:07:43.318Z,99.90
2018-03-27T23:10:11.550Z,99.90
2018-03-27T23:12:39.163Z,99.90
2018-03-27T23:15:07.570Z,99.90
2018-03-27T23:17:35.036Z,99.90
2018-03-27T23:20:02.494Z,99.90
2018-03-27T23:22:30.704Z,99.90
2018-03-27T23:24:58.243Z,99.90
2018-03-27T23:27:25.716Z,99.90
2018-03-27T23:29:53.225Z,99.90
2018-03-27T23:32:20.744Z,99.90
2018-03-27T23:34:49.117Z,99.90
2018-03-27T23:37:17.435Z,99.90
2018-03-27T23:39:44.908Z,99.90
2018-03-27T23:42:12.475Z,99.90
2018-03-27T23:44:39.928Z,99.90
2018-03-27T23:47:07.462Z,99.90
2018-03-27T23:49:34.969Z,99.90
2018-03-27T23:52:02.662Z,99.90
2018-03-27T23:54:30.915Z,99.90
2018-03-27T23:56:58.405Z,99.90
2018-03-27T23:59:26.609Z,99.90
